Time;durP1;ratioP1;P1;durP2;ratioP2;P2;SDS_P1;SDS_P2;PMS_P1;PMS_P2;Temp;Humidity;BMP_temperature;BMP_pressure;BME280_temperature;BME280_humidity;BME280_pressure;Samples;Min_cycle;Max_cycle;Signal;HPM_P1;HPM_P2
2020/12/31 00:00:06;;;;;;;2.80;2.60;;;6.00;99.90;;;;;;5072670;28;20197;-63
2020/12/31 00:02:33;;;;;;;3.43;2.70;;;6.10;99.90;;;;;;5072456;28;20205;-63
2020/12/31 00:04:59;;;;;;;3.53;2.90;;;6.10;99.90;;;;;;5071641;28;20584;-63
2020/12/31 00:07:25;;;;;;;3.23;2.70;;;6.10;99.90;;;;;;5072334;28;20225;-63
2020/12/31 00:09:52;;;;;;;3.27;2.57;;;6.00;99.90;;;;;;5072319;28;20201;-64
2020/12/31 00:12:19;;;;;;;3.30;2.73;;;5.90;99.90;;;;;;5072499;28;20201;-64
2020/12/31 00:14:45;;;;;;;5.00;3.50;;;5.90;99.90;;;;;;5072099;28;20224;-64
2020/12/31 00:17:11;;;;;;;3.57;2.80;;;5.80;99.90;;;;;;5072346;28;20657;-64
2020/12/31 00:19:37;;;;;;;4.30;2.83;;;5.80;99.90;;;;;;5072031;28;20209;-65
2020/12/31 00:22:04;;;;;;;4.33;2.90;;;5.70;99.90;;;;;;5072269;28;20209;-65
2020/12/31 00:24:30;;;;;;;3.37;2.90;;;5.80;99.90;;;;;;5072234;28;20656;-63
2020/12/31 00:26:57;;;;;;;3.63;2.70;;;5.80;99.90;;;;;;5072148;28;20762;-63
2020/12/31 00:29:23;;;;;;;2.83;2.60;;;5.90;99.90;;;;;;5071805;28;20209;-64
2020/12/31 00:31:50;;;;;;;2.97;2.60;;;5.90;99.90;;;;;;5072177;28;20205;-64
2020/12/31 00:34:16;;;;;;;3.13;2.60;;;5.90;99.90;;;;;;5072365;28;20212;-63
2020/12/31 00:36:43;;;;;;;3.10;2.63;;;5.80;99.90;;;;;;5072147;28;20598;-63
2020/12/31 00:39:09;;;;;;;2.90;2.50;;;5.80;99.90;;;;;;5072018;28;20207;-64
2020/12/31 00:41:35;;;;;;;2.90;2.57;;;5.80;99.90;;;;;;5072128;28;20212;-63
2020/12/31 00:44:02;;;;;;;3.87;2.40;;;5.90;99.90;;;;;;5072064;28;20234;-63
2020/12/31 00:46:28;;;;;;;3.00;2.60;;;5.90;99.90;;;;;;5071784;28;20226;-63
2020/12/31 00:48:55;;;;;;;3.03;2.63;;;6.00;99.90;;;;;;5071850;28;20635;-63
2020/12/31 00:51:21;;;;;;;3.57;2.80;;;6.00;99.90;;;;;;5072218;28;20594;-63
2020/12/31 00:53:47;;;;;;;2.97;2.67;;;6.00;99.90;;;;;;5071887;28;20500;-63
2020/12/31 00:56:13;;;;;;;3.60;3.20;;;6.10;99.90;;;;;;5071293;28;20846;-63
2020/12/31 00:58:39;;;;;;;4.47;3.00;;;6.10;99.90;;;;;;5071125;28;20215;-63
2020/12/31 01:01:07;;;;;;;3.30;3.00;;;6.20;99.90;;;;;;5071035;28;20691;-63
2020/12/31 01:03:33;;;;;;;4.93;3.30;;;6.20;99.90;;;;;;5070649;28;20211;-63
2020/12/31 01:05:59;;;;;;;3.53;3.00;;;6.20;99.90;;;;;;5070986;28;20231;-63
2020/12/31 01:08:26;;;;;;;4.27;2.80;;;6.20;99.90;;;;;;5070684;28;20205;-64
2020/12/31 01:10:52;;;;;;;5.47;3.10;;;6.30;99.90;;;;;;5074055;28;20211;-63
2020/12/31 01:13:18;;;;;;;4.23;2.87;;;6.20;99.90;;;;;;5075184;28;20201;-63
2020/12/31 01:15:44;;;;;;;4.47;2.83;;;6.20;99.90;;;;;;5074481;28;20248;-63
2020/12/31 01:18:12;;;;;;;3.73;3.30;;;6.20;99.90;;;;;;5074626;28;20710;-64
2020/12/31 01:20:39;;;;;;;4.10;2.93;;;6.30;99.90;;;;;;5074760;28;20205;-64
2020/12/31 01:23:05;;;;;;;3.67;2.70;;;6.30;99.90;;;;;;5074946;28;20209;-64
2020/12/31 01:25:32;;;;;;;3.60;2.80;;;6.30;99.90;;;;;;5074709;28;20216;-63
2020/12/31 01:27:58;;;;;;;3.93;3.23;;;6.30;99.90;;;;;;5074705;28;20208;-63
2020/12/31 01:30:24;;;;;;;4.80;3.57;;;6.20;99.90;;;;;;5074969;28;20258;-63
2020/12/31 01:32:50;;;;;;;5.67;3.67;;;6.20;99.90;;;;;;5074822;28;20205;-63
2020/12/31 01:35:17;;;;;;;4.77;3.87;;;6.20;99.90;;;;;;5074637;28;20227;-64
2020/12/31 01:37:44;;;;;;;6.30;4.20;;;6.20;99.90;;;;;;5074443;28;20611;-63
2020/12/31 01:40:10;;;;;;;3.93;3.30;;;6.20;99.90;;;;;;5074746;28;20209;-64
2020/12/31 01:42:39;;;;;;;3.70;2.90;;;6.30;99.90;;;;;;5075191;28;20258;-63
2020/12/31 01:45:05;;;;;;;2.97;2.60;;;6.20;99.90;;;;;;5075104;28;20673;-63
2020/12/31 01:47:31;;;;;;;3.10;2.47;;;6.20;99.90;;;;;;5074818;28;20282;-63
2020/12/31 01:49:57;;;;;;;3.27;2.70;;;6.20;99.90;;;;;;5074928;28;20208;-64
2020/12/31 01:52:25;;;;;;;3.33;2.93;;;6.10;99.90;;;;;;5074887;28;20212;-64
2020/12/31 01:54:52;;;;;;;3.57;2.90;;;6.10;99.90;;;;;;5074253;28;20228;-63
2020/12/31 01:57:18;;;;;;;3.20;2.90;;;6.10;99.90;;;;;;5074683;28;20230;-65
2020/12/31 01:59:45;;;;;;;3.57;3.13;;;6.20;99.90;;;;;;5074113;28;20212;-64
2020/12/31 02:02:11;;;;;;;3.03;2.73;;;6.10;99.90;;;;;;5074572;28;20213;-63
2020/12/31 02:04:38;;;;;;;4.80;2.60;;;6.10;99.90;;;;;;5074542;28;20212;-63
2020/12/31 02:07:05;;;;;;;3.80;2.90;;;6.10;99.90;;;;;;5074614;28;20232;-63
2020/12/31 02:09:32;;;;;;;3.20;2.87;;;6.10;99.90;;;;;;5074381;28;20213;-64
2020/12/31 02:12:02;;;;;;;3.73;2.50;;;6.00;99.90;;;;;;5073896;28;20620;-64
2020/12/31 02:14:28;;;;;;;3.10;2.63;;;5.80;99.90;;;;;;5073425;28;20201;-64
2020/12/31 02:16:55;;;;;;;3.03;2.40;;;5.80;99.90;;;;;;5073670;28;20298;-64
2020/12/31 02:19:21;;;;;;;3.00;2.70;;;5.70;99.90;;;;;;5073574;28;20208;-64
2020/12/31 02:21:48;;;;;;;4.60;2.77;;;5.50;99.90;;;;;;5073745;28;20212;-63
2020/12/31 02:24:15;;;;;;;3.23;2.70;;;5.50;99.90;;;;;;5074574;28;20209;-63
2020/12/31 02:26:43;;;;;;;3.70;2.60;;;5.20;99.90;;;;;;5075158;28;20221;-63
2020/12/31 02:29:10;;;;;;;3.80;2.83;;;5.20;99.90;;;;;;5074120;28;20234;-62
2020/12/31 02:31:37;;;;;;;2.97;2.50;;;5.10;99.90;;;;;;5074259;28;20463;-63
2020/12/31 02:34:04;;;;;;;3.47;2.73;;;5.00;99.90;;;;;;5073835;28;20205;-63
2020/12/31 02:36:33;;;;;;;5.40;3.17;;;4.90;99.90;;;;;;5073615;28;20655;-63
2020/12/31 02:39:03;;;;;;;4.33;2.80;;;4.70;99.90;;;;;;5073403;28;20273;-62
2020/12/31 02:41:30;;;;;;;4.00;3.10;;;4.60;99.90;;;;;;5074005;28;20224;-62
2020/12/31 02:43:56;;;;;;;3.80;2.90;;;4.60;99.90;;;;;;5075138;28;20204;-62
2020/12/31 02:46:22;;;;;;;3.33;2.83;;;4.60;99.90;;;;;;5077524;28;20231;-63
2020/12/31 02:48:49;;;;;;;3.80;2.57;;;4.50;99.90;;;;;;5073062;28;20205;-62
2020/12/31 02:51:17;;;;;;;14.47;11.37;;;4.50;99.90;;;;;;5073378;28;20212;-62
2020/12/31 02:53:43;;;;;;;60.30;43.13;;;4.40;99.90;;;;;;5074647;28;20213;-62
2020/12/31 02:56:11;;;;;;;4.40;3.50;;;4.40;99.90;;;;;;5075092;28;20225;-62
2020/12/31 02:58:38;;;;;;;4.27;2.87;;;4.30;99.90;;;;;;5074962;28;20532;-62
2020/12/31 03:01:04;;;;;;;3.70;2.97;;;4.30;99.90;;;;;;5075350;28;20215;-62
2020/12/31 03:03:31;;;;;;;3.63;2.90;;;4.30;99.90;;;;;;5074544;28;20255;-62
2020/12/31 03:05:57;;;;;;;3.37;2.63;;;4.30;99.90;;;;;;5074767;28;20227;-63
2020/12/31 03:08:23;;;;;;;4.20;3.20;;;4.20;99.90;;;;;;5075107;28;20219;-63
2020/12/31 03:10:51;;;;;;;3.63;3.00;;;4.40;99.90;;;;;;5074880;28;20240;-62
2020/12/31 03:13:18;;;;;;;3.13;2.83;;;4.50;99.90;;;;;;5073903;28;20571;-63
2020/12/31 03:18:14;;;;;;;4.00;3.10;;;4.60;99.90;;;;;;5070686;28;20221;-61
2020/12/31 03:20:43;;;;;;;3.57;3.03;;;4.50;99.90;;;;;;5071976;28;20223;-61
2020/12/31 03:23:13;;;;;;;3.23;2.87;;;4.50;99.90;;;;;;5071986;28;20282;-61
2020/12/31 03:25:40;;;;;;;4.07;2.83;;;4.30;99.90;;;;;;5071699;28;20270;-61
2020/12/31 03:28:06;;;;;;;2.90;2.60;;;4.20;99.90;;;;;;5071689;28;20211;-61
2020/12/31 03:30:34;;;;;;;3.53;2.63;;;4.20;99.90;;;;;;5071972;28;20209;-61
2020/12/31 03:33:00;;;;;;;3.77;2.73;;;4.20;99.90;;;;;;5071232;28;20621;-61
2020/12/31 03:35:27;;;;;;;4.43;2.90;;;4.20;99.90;;;;;;5071271;28;20278;-61
2020/12/31 03:37:53;;;;;;;4.03;2.83;;;4.30;99.90;;;;;;5071056;28;20225;-61
2020/12/31 03:40:21;;;;;;;3.80;3.00;;;4.40;99.90;;;;;;5071523;28;20209;-61
2020/12/31 03:42:47;;;;;;;3.57;2.77;;;4.50;99.90;;;;;;5071544;28;20586;-62
2020/12/31 03:45:14;;;;;;;3.20;2.70;;;4.60;99.90;;;;;;5071148;28;20201;-61
2020/12/31 03:47:41;;;;;;;3.57;2.83;;;4.50;99.90;;;;;;5071060;28;20635;-61
2020/12/31 03:50:08;;;;;;;3.23;2.80;;;4.30;99.90;;;;;;5071260;28;20216;-61
2020/12/31 03:52:34;;;;;;;3.67;2.63;;;4.10;99.90;;;;;;5071159;28;20220;-61
2020/12/31 03:55:00;;;;;;;3.10;2.53;;;4.00;99.90;;;;;;5071179;28;20232;-61
2020/12/31 03:57:26;;;;;;;3.17;2.70;;;4.00;99.90;;;;;;5071135;28;20728;-61
2020/12/31 03:59:54;;;;;;;5.67;2.60;;;3.90;99.90;;;;;;5070767;28;20219;-61
2020/12/31 04:02:20;;;;;;;3.37;2.30;;;3.80;99.90;;;;;;5071302;28;20567;-61
2020/12/31 04:04:47;;;;;;;3.33;2.60;;;3.80;99.90;;;;;;5070875;28;20266;-61
2020/12/31 04:07:13;;;;;;;2.93;2.60;;;3.70;99.90;;;;;;5070811;28;20225;-61
2020/12/31 04:09:39;;;;;;;4.43;2.50;;;3.70;99.90;;;;;;5070727;28;20220;-61
2020/12/31 04:12:06;;;;;;;3.07;2.50;;;3.60;99.90;;;;;;5071065;28;20209;-61
2020/12/31 04:14:32;;;;;;;2.87;2.43;;;3.60;99.90;;;;;;5070963;28;20292;-61
2020/12/31 04:16:58;;;;;;;3.20;2.47;;;3.50;99.90;;;;;;5070848;28;20228;-61
2020/12/31 04:19:24;;;;;;;3.43;2.63;;;3.40;99.90;;;;;;5070506;28;20687;-61
2020/12/31 04:21:53;;;;;;;3.87;2.87;;;3.30;99.90;;;;;;5070944;28;20213;-61
2020/12/31 04:24:20;;;;;;;6.63;2.93;;;3.20;99.90;;;;;;5070612;28;20212;-61
2020/12/31 04:26:49;;;;;;;2.90;2.40;;;3.20;99.90;;;;;;5071003;28;20267;-62
2020/12/31 04:29:15;;;;;;;3.93;2.67;;;3.10;99.90;;;;;;5070735;28;20296;-61
2020/12/31 04:31:42;;;;;;;2.60;2.40;;;3.10;99.90;;;;;;5071351;28;20213;-61
2020/12/31 04:34:08;;;;;;;3.73;2.40;;;3.00;99.90;;;;;;5070265;28;20216;-61
2020/12/31 04:36:34;;;;;;;3.67;2.97;;;3.00;99.90;;;;;;5070664;28;20271;-62
2020/12/31 04:39:02;;;;;;;3.60;2.70;;;2.90;99.90;;;;;;5070439;28;20573;-61
2020/12/31 04:41:28;;;;;;;3.23;2.73;;;2.90;99.90;;;;;;5070653;28;20270;-61
2020/12/31 04:43:55;;;;;;;3.43;2.60;;;2.90;99.90;;;;;;5070126;28;20204;-61
2020/12/31 04:46:23;;;;;;;3.70;2.30;;;2.80;99.90;;;;;;5070412;28;20225;-62
2020/12/31 04:48:56;;;;;;;3.50;2.40;;;2.80;99.90;;;;;;5070129;28;20224;-61
2020/12/31 04:51:25;;;;;;;3.80;2.60;;;2.80;99.90;;;;;;5070506;28;20236;-61
2020/12/31 04:53:53;;;;;;;3.50;2.47;;;2.70;99.90;;;;;;5070170;28;20219;-61
2020/12/31 04:56:24;;;;;;;3.00;2.43;;;2.60;99.90;;;;;;5070188;28;20244;-61
2020/12/31 04:58:50;;;;;;;2.83;2.40;;;2.60;99.90;;;;;;5070125;28;20628;-61
2020/12/31 05:01:17;;;;;;;2.93;2.13;;;2.50;99.90;;;;;;5070263;28;20681;-62
2020/12/31 05:03:43;;;;;;;2.80;2.20;;;2.40;99.90;;;;;;5070238;28;20699;-61
2020/12/31 05:06:12;;;;;;;3.93;2.40;;;2.40;99.90;;;;;;5070480;28;20229;-61
2020/12/31 05:08:39;;;;;;;4.33;2.60;;;2.30;99.90;;;;;;5070146;28;20205;-61
2020/12/31 05:11:05;;;;;;;2.97;2.57;;;2.30;99.90;;;;;;5070413;28;20322;-61
2020/12/31 05:13:42;;;;;;;2.87;2.40;;;2.20;99.90;;;;;;5069827;28;20226;-61
2020/12/31 05:16:09;;;;;;;3.80;2.70;;;2.10;99.90;;;;;;5069933;28;20637;-61
2020/12/31 05:18:35;;;;;;;4.77;2.33;;;2.10;99.90;;;;;;5069987;28;20201;-61
2020/12/31 05:21:13;;;;;;;2.50;2.10;;;2.00;99.90;;;;;;5070196;28;20582;-61
2020/12/31 05:23:39;;;;;;;3.67;2.47;;;2.00;99.90;;;;;;5070002;28;20289;-61
2020/12/31 05:26:05;;;;;;;3.13;2.13;;;2.00;99.90;;;;;;5070183;28;20221;-60
2020/12/31 05:28:33;;;;;;;4.83;2.90;;;1.90;99.90;;;;;;5070192;28;20631;-60
2020/12/31 05:31:01;;;;;;;4.03;2.90;;;1.90;99.90;;;;;;5070359;28;20212;-60
2020/12/31 05:33:29;;;;;;;4.90;3.13;;;1.80;99.90;;;;;;5069889;28;20209;-60
2020/12/31 05:36:17;;;;;;;4.57;3.07;;;1.80;99.90;;;;;;5070150;28;20248;-60
2020/12/31 05:39:01;;;;;;;4.70;3.40;;;1.70;99.90;;;;;;5069766;28;20212;-60
2020/12/31 05:41:28;;;;;;;3.30;2.90;;;1.70;99.90;;;;;;5070818;28;20205;-62
2020/12/31 05:43:57;;;;;;;3.50;2.87;;;1.60;99.90;;;;;;5069955;28;20695;-61
2020/12/31 05:46:24;;;;;;;3.83;3.40;;;1.50;99.90;;;;;;5070275;28;20618;-60
2020/12/31 05:48:56;;;;;;;4.73;3.13;;;1.50;99.90;;;;;;5069672;28;20384;-60
2020/12/31 05:51:24;;;;;;;4.33;3.33;;;1.40;99.90;;;;;;5069967;28;20304;-61
2020/12/31 05:53:51;;;;;;;4.50;3.30;;;1.40;99.90;;;;;;5069743;28;20656;-61
2020/12/31 05:56:18;;;;;;;5.53;4.80;;;1.40;99.90;;;;;;5071725;28;20263;-60
2020/12/31 05:58:46;;;;;;;7.13;5.80;;;1.40;99.90;;;;;;5073138;28;20270;-60
2020/12/31 06:01:14;;;;;;;6.67;5.97;;;1.40;99.90;;;;;;5073490;28;20205;-61
2020/12/31 06:03:47;;;;;;;5.63;5.03;;;1.40;99.90;;;;;;5073093;28;20665;-61
2020/12/31 06:06:18;;;;;;;4.70;4.27;;;1.40;99.90;;;;;;5073602;28;20228;-61
2020/12/31 06:09:04;;;;;;;6.70;4.00;;;1.40;99.90;;;;;;5073120;28;20216;-61
2020/12/31 06:11:37;;;;;;;4.33;3.43;;;1.40;99.90;;;;;;5073559;28;20209;-61
2020/12/31 06:14:05;;;;;;;3.23;2.80;;;1.50;99.90;;;;;;5072934;28;20292;-61
2020/12/31 06:16:39;;;;;;;5.40;3.20;;;1.50;99.90;;;;;;5072924;28;20697;-61
2020/12/31 06:19:39;;;;;;;3.37;2.80;;;1.50;99.90;;;;;;5072809;28;20687;-61
2020/12/31 06:22:06;;;;;;;4.80;3.27;;;1.40;99.90;;;;;;5068474;28;20584;-61
2020/12/31 06:24:38;;;;;;;4.23;3.07;;;1.20;99.90;;;;;;5073257;28;20209;-61
2020/12/31 06:27:07;;;;;;;4.37;3.30;;;1.00;99.90;;;;;;5073416;28;20278;-61
2020/12/31 06:29:39;;;;;;;4.40;3.13;;;0.90;99.90;;;;;;5073052;28;20212;-61
2020/12/31 06:32:13;;;;;;;6.03;3.10;;;0.80;99.90;;;;;;5073136;28;20197;-60
2020/12/31 06:34:40;;;;;;;5.47;3.67;;;0.70;99.90;;;;;;5072704;28;20633;-61
2020/12/31 06:37:09;;;;;;;6.70;4.40;;;0.70;99.90;;;;;;5072480;28;20229;-61
2020/12/31 06:39:36;;;;;;;5.57;3.90;;;0.70;99.90;;;;;;5072966;28;20285;-61
2020/12/31 06:42:02;;;;;;;6.07;4.23;;;0.70;99.90;;;;;;5073073;28;20212;-61
2020/12/31 06:44:30;;;;;;;6.53;3.80;;;0.70;99.90;;;;;;5072371;28;20287;-61
2020/12/31 06:46:56;;;;;;;6.07;3.90;;;0.70;99.90;;;;;;5072628;28;20225;-61
2020/12/31 06:49:23;;;;;;;6.83;4.20;;;0.80;99.90;;;;;;5072435;28;20254;-60
2020/12/31 06:51:49;;;;;;;6.57;4.07;;;0.90;99.90;;;;;;5072696;28;20459;-61
2020/12/31 06:54:28;;;;;;;5.33;3.90;;;1.00;99.90;;;;;;5072720;28;20205;-61
2020/12/31 06:56:54;;;;;;;4.30;3.33;;;1.10;99.90;;;;;;5072684;28;20224;-61
2020/12/31 06:59:25;;;;;;;4.10;3.20;;;1.20;99.90;;;;;;5072522;28;20201;-61
2020/12/31 07:01:52;;;;;;;7.03;3.93;;;1.20;99.90;;;;;;5072720;28;20346;-61
2020/12/31 07:04:30;;;;;;;5.63;4.20;;;1.30;99.90;;;;;;5072225;28;20708;-61
2020/12/31 07:06:57;;;;;;;5.50;3.77;;;1.20;99.90;;;;;;5071647;28;20309;-61
2020/12/31 07:09:41;;;;;;;6.60;4.47;;;1.10;99.90;;;;;;5072393;28;20220;-61
2020/12/31 07:12:08;;;;;;;4.90;3.50;;;1.20;99.90;;;;;;5072881;28;20262;-61
2020/12/31 07:14:36;;;;;;;4.33;3.60;;;1.20;99.90;;;;;;5072266;28;20209;-61
2020/12/31 07:17:05;;;;;;;4.83;3.80;;;1.20;99.90;;;;;;5072208;28;20229;-61
2020/12/31 07:19:37;;;;;;;4.97;3.47;;;1.30;99.90;;;;;;5072235;28;20235;-61
2020/12/31 07:22:18;;;;;;;5.87;3.70;;;1.20;99.90;;;;;;5072024;28;20211;-61
2020/12/31 07:24:53;;;;;;;5.40;4.00;;;1.10;99.90;;;;;;5071798;28;20841;-61
2020/12/31 07:27:25;;;;;;;4.37;3.53;;;1.10;99.90;;;;;;5072126;28;20255;-61
2020/12/31 07:30:10;;;;;;;4.53;3.60;;;1.10;99.90;;;;;;5072061;28;20208;-61
2020/12/31 07:32:56;;;;;;;4.23;3.57;;;1.00;99.90;;;;;;5072002;28;20231;-61
2020/12/31 07:35:26;;;;;;;4.27;3.37;;;1.10;99.90;;;;;;5071428;28;20285;-61
2020/12/31 07:37:54;;;;;;;5.13;3.93;;;1.10;99.90;;;;;;5071735;28;20229;-61
2020/12/31 07:40:28;;;;;;;7.23;3.67;;;1.10;99.90;;;;;;5072012;28;20200;-62
2020/12/31 07:42:54;;;;;;;5.17;4.13;;;1.10;99.90;;;;;;5071770;28;20201;-61
2020/12/31 07:45:20;;;;;;;4.83;4.00;;;1.10;99.90;;;;;;5071550;28;20205;-61
2020/12/31 07:47:50;;;;;;;5.50;3.70;;;1.20;99.90;;;;;;5071389;28;20229;-61
2020/12/31 07:50:17;;;;;;;4.43;3.60;;;1.30;99.90;;;;;;5071805;28;20209;-61
2020/12/31 07:52:44;;;;;;;4.17;3.60;;;1.40;99.90;;;;;;5071729;28;20209;-61
2020/12/31 07:55:10;;;;;;;4.13;3.70;;;1.60;99.90;;;;;;5071583;28;20204;-61
2020/12/31 07:57:37;;;;;;;5.97;4.10;;;1.70;99.90;;;;;;5071231;28;20229;-61
2020/12/31 08:00:03;;;;;;;4.93;3.80;;;1.80;99.90;;;;;;5071357;28;20296;-61
2020/12/31 08:02:31;;;;;;;4.60;3.90;;;1.90;99.90;;;;;;5071334;28;20209;-61
2020/12/31 08:04:58;;;;;;;6.27;4.30;;;1.90;99.90;;;;;;5071047;28;20243;-61
2020/12/31 08:07:24;;;;;;;6.60;4.63;;;2.00;99.90;;;;;;5071455;28;20248;-61
2020/12/31 08:09:52;;;;;;;7.10;4.77;;;2.20;99.90;;;;;;5070989;28;20209;-61
2020/12/31 08:12:18;;;;;;;8.03;4.93;;;2.40;99.90;;;;;;5071212;28;20212;-61
2020/12/31 08:14:45;;;;;;;8.17;4.60;;;2.50;99.90;;;;;;5070766;28;20212;-61
2020/12/31 08:17:12;;;;;;;5.23;3.93;;;2.60;99.90;;;;;;5070745;28;20233;-61
2020/12/31 08:19:39;;;;;;;4.90;3.73;;;2.60;99.90;;;;;;5070614;28;20209;-61
2020/12/31 08:22:19;;;;;;;5.23;4.00;;;2.60;99.90;;;;;;5071182;28;20608;-61
2020/12/31 08:24:49;;;;;;;5.23;3.90;;;2.60;99.90;;;;;;5070806;28;20354;-61
2020/12/31 08:27:20;;;;;;;5.97;4.27;;;2.90;99.90;;;;;;5071264;28;20225;-61
2020/12/31 08:29:47;;;;;;;5.43;4.50;;;3.00;99.90;;;;;;5070348;28;20798;-61
2020/12/31 08:32:23;;;;;;;4.63;3.70;;;3.10;99.90;;;;;;5070949;28;20607;-62
2020/12/31 08:34:53;;;;;;;10.03;7.17;;;3.20;99.90;;;;;;5070431;28;20298;-62
2020/12/31 08:37:21;;;;;;;6.07;4.77;;;3.30;99.90;;;;;;5070497;28;20225;-62
2020/12/31 08:39:50;;;;;;;10.43;6.90;;;3.40;99.90;;;;;;5070232;28;20209;-62
2020/12/31 08:42:20;;;;;;;6.17;4.23;;;3.40;99.90;;;;;;5070801;28;20211;-62
2020/12/31 08:44:52;;;;;;;6.40;4.13;;;3.30;99.90;;;;;;5070663;28;20205;-60
2020/12/31 08:47:20;;;;;;;5.03;4.13;;;3.50;99.90;;;;;;5070878;28;20572;-60
2020/12/31 08:49:54;;;;;;;5.00;4.20;;;3.60;99.90;;;;;;5070192;28;20209;-60
2020/12/31 08:52:23;;;;;;;5.43;4.37;;;3.70;99.90;;;;;;5071035;28;20212;-60
2020/12/31 08:55:08;;;;;;;6.00;4.47;;;3.70;99.90;;;;;;5070540;28;20548;-60
2020/12/31 08:57:35;;;;;;;5.90;4.37;;;3.70;99.90;;;;;;5070326;28;20255;-60
2020/12/31 09:00:01;;;;;;;5.23;4.20;;;3.80;99.90;;;;;;5070226;28;20722;-61
2020/12/31 09:02:27;;;;;;;7.07;4.80;;;3.70;99.90;;;;;;5070547;28;20209;-61
2020/12/31 09:05:13;;;;;;;5.77;4.77;;;3.70;99.90;;;;;;5070626;28;20349;-61
2020/12/31 09:07:39;;;;;;;5.70;4.83;;;3.70;99.90;;;;;;5069916;28;20608;-61
2020/12/31 09:10:16;;;;;;;8.53;5.17;;;3.70;99.90;;;;;;5070312;28;20676;-61
2020/12/31 09:12:46;;;;;;;6.33;5.33;;;3.70;99.90;;;;;;5070491;28;20201;-60
2020/12/31 09:15:20;;;;;;;5.60;4.87;;;3.90;99.90;;;;;;5069798;28;20652;-60
2020/12/31 09:17:48;;;;;;;6.47;5.07;;;4.10;99.90;;;;;;5070254;28;20232;-61
2020/12/31 09:20:24;;;;;;;6.57;5.10;;;4.20;99.90;;;;;;5070076;28;20229;-61
2020/12/31 09:22:52;;;;;;;7.37;5.60;;;4.20;99.90;;;;;;5069972;28;20680;-63
2020/12/31 09:25:18;;;;;;;7.37;5.60;;;4.20;99.90;;;;;;5069764;28;20251;-62
2020/12/31 09:27:46;;;;;;;7.47;5.83;;;4.30;99.90;;;;;;5069550;28;20221;-63
2020/12/31 09:30:14;;;;;;;7.27;5.63;;;4.40;99.90;;;;;;5070540;28;20253;-63
2020/12/31 09:32:45;;;;;;;8.70;6.03;;;4.50;99.90;;;;;;5074125;28;20243;-62
2020/12/31 09:35:11;;;;;;;9.30;5.77;;;4.70;99.90;;;;;;5073903;28;20228;-61
2020/12/31 09:37:46;;;;;;;9.43;6.33;;;4.80;99.90;;;;;;5073989;28;20315;-64
2020/12/31 09:40:12;;;;;;;6.50;5.70;;;5.00;99.90;;;;;;5073853;28;20301;-63
2020/12/31 09:42:38;;;;;;;7.30;5.63;;;5.30;99.90;;;;;;5073815;28;20696;-62
2020/12/31 09:45:05;;;;;;;9.67;6.67;;;5.50;99.90;;;;;;5073530;28;20204;-62
2020/12/31 09:47:32;;;;;;;8.03;5.77;;;5.70;99.90;;;;;;5073670;28;20221;-62
2020/12/31 09:49:58;;;;;;;8.80;5.97;;;5.80;99.90;;;;;;5073486;28;20205;-62
2020/12/31 09:52:24;;;;;;;6.83;5.47;;;5.90;99.90;;;;;;5073415;28;20213;-63
2020/12/31 09:54:50;;;;;;;6.97;5.93;;;6.00;99.90;;;;;;5073352;28;20216;-63
2020/12/31 09:57:16;;;;;;;8.90;5.90;;;6.10;99.90;;;;;;5073532;28;20286;-63
2020/12/31 09:59:42;;;;;;;7.10;6.00;;;6.20;99.90;;;;;;5073488;28;20209;-63
2020/12/31 10:02:09;;;;;;;8.40;6.30;;;6.30;99.90;;;;;;5074041;28;20250;-63
2020/12/31 10:04:36;;;;;;;6.17;5.00;;;6.40;99.90;;;;;;5073344;28;20236;-62
2020/12/31 10:07:02;;;;;;;5.73;4.70;;;6.70;99.90;;;;;;5073833;28;20231;-63
2020/12/31 10:09:28;;;;;;;5.37;4.70;;;6.80;99.90;;;;;;5073260;28;20254;-62
2020/12/31 10:11:55;;;;;;;5.33;4.73;;;7.20;99.90;;;;;;5073788;28;20360;-62
2020/12/31 10:14:21;;;;;;;14.00;12.33;;;7.40;99.90;;;;;;5073368;28;20213;-62
2020/12/31 10:16:47;;;;;;;4.53;4.10;;;7.70;99.90;;;;;;5073416;28;20708;-64
2020/12/31 10:19:14;;;;;;;4.93;4.33;;;8.00;99.70;;;;;;5073530;28;20209;-63
2020/12/31 10:21:44;;;;;;;5.43;4.50;;;8.10;99.40;;;;;;5072880;28;20672;-64
2020/12/31 10:24:10;;;;;;;5.00;4.50;;;8.20;99.00;;;;;;5072779;28;20696;-63
2020/12/31 10:26:36;;;;;;;5.37;4.70;;;8.40;99.00;;;;;;5073022;28;20279;-63
2020/12/31 10:29:02;;;;;;;4.57;4.17;;;8.50;98.70;;;;;;5072652;28;20622;-63
2020/12/31 10:31:28;;;;;;;5.67;4.87;;;8.60;98.50;;;;;;5073539;28;20212;-63
2020/12/31 10:33:55;;;;;;;5.00;4.43;;;8.60;98.50;;;;;;5072862;28;20205;-63
2020/12/31 10:36:22;;;;;;;5.20;4.57;;;8.70;98.50;;;;;;5073193;28;20232;-63
2020/12/31 10:38:48;;;;;;;4.85;4.35;;;8.80;98.30;;;;;;5071560;28;20350;-65
2020/12/31 10:41:14;;;;;;;5.30;4.50;;;8.80;98.20;;;;;;5070339;28;20213;-65
2020/12/31 10:43:41;;;;;;;7.67;4.67;;;8.60;98.70;;;;;;5072400;28;20205;-65
2020/12/31 10:46:07;;;;;;;5.00;4.50;;;8.60;99.00;;;;;;5067091;28;20221;-65
2020/12/31 10:48:33;;;;;;;4.87;4.30;;;8.60;99.20;;;;;;5052667;28;20611;-64
2020/12/31 10:51:00;;;;;;;5.60;4.53;;;8.50;99.20;;;;;;5052299;28;20243;-65
2020/12/31 10:53:27;;;;;;;5.30;4.13;;;8.50;99.20;;;;;;5052153;28;20488;-64
2020/12/31 10:55:53;;;;;;;5.73;4.57;;;8.60;99.40;;;;;;5052611;28;20232;-65
2020/12/31 10:58:19;;;;;;;7.33;5.47;;;8.60;99.30;;;;;;5052378;28;20844;-62
2020/12/31 11:00:46;;;;;;;6.10;5.13;;;8.40;99.10;;;;;;5052642;28;20210;-65
2020/12/31 11:03:12;;;;;;;4.90;4.20;;;8.40;99.60;;;;;;5052492;28;20235;-65
2020/12/31 11:05:38;;;;;;;20.70;13.03;;;8.50;99.60;;;;;;5052413;28;20201;-66
2020/12/31 11:08:04;;;;;;;31.17;16.30;;;8.50;99.60;;;;;;5052184;28;20221;-65
2020/12/31 11:10:31;;;;;;;23.07;13.13;;;8.40;99.70;;;;;;5052293;28;20677;-64
2020/12/31 11:12:58;;;;;;;7.53;6.30;;;8.30;99.70;;;;;;5052179;28;20209;-64
2020/12/31 11:15:24;;;;;;;10.37;7.33;;;8.10;99.90;;;;;;5052380;28;20202;-65
2020/12/31 11:17:51;;;;;;;8.50;6.57;;;7.90;99.90;;;;;;5051626;28;20291;-64
2020/12/31 11:20:17;;;;;;;6.97;5.57;;;7.80;99.90;;;;;;5052000;28;20205;-63
2020/12/31 11:22:43;;;;;;;7.77;5.60;;;7.70;99.90;;;;;;5052325;28;20213;-63
2020/12/31 11:25:09;;;;;;;4.70;4.20;;;7.70;99.90;;;;;;5051958;28;20205;-64
2020/12/31 11:27:36;;;;;;;5.77;4.90;;;7.30;99.90;;;;;;5051609;28;20702;-65
2020/12/31 11:30:03;;;;;;;5.10;4.47;;;7.40;99.90;;;;;;5051957;28;20201;-65
2020/12/31 11:32:29;;;;;;;4.43;3.90;;;7.40;99.90;;;;;;5053187;28;20688;-64
2020/12/31 11:34:55;;;;;;;4.70;4.10;;;7.60;99.90;;;;;;5052299;28;20581;-62
2020/12/31 11:37:21;;;;;;;5.17;4.10;;;7.80;99.90;;;;;;5051958;28;20236;-62
2020/12/31 11:39:48;;;;;;;5.20;4.30;;;7.60;99.90;;;;;;5053308;28;20213;-64
2020/12/31 11:42:14;;;;;;;4.83;3.90;;;7.70;99.90;;;;;;5053932;28;20688;-64
2020/12/31 11:44:41;;;;;;;6.13;4.23;;;7.80;99.90;;;;;;5051609;28;20214;-63
2020/12/31 11:47:08;;;;;;;5.13;4.20;;;7.90;99.90;;;;;;5056329;28;20246;-63
2020/12/31 11:49:34;;;;;;;4.57;3.87;;;8.00;99.90;;;;;;5052637;28;20205;-63
2020/12/31 11:52:00;;;;;;;5.40;4.20;;;8.10;99.90;;;;;;5053498;28;20206;-65
2020/12/31 11:54:27;;;;;;;4.43;3.90;;;8.10;99.90;;;;;;5050794;28;20210;-65
2020/12/31 11:56:53;;;;;;;4.33;3.77;;;7.80;99.90;;;;;;5051682;28;20229;-65
2020/12/31 11:59:20;;;;;;;4.77;3.90;;;7.90;99.90;;;;;;5051255;28;20214;-64
2020/12/31 12:01:53;;;;;;;6.37;4.57;;;7.90;99.90;;;;;;5051546;28;20214;-66
2020/12/31 12:04:19;;;;;;;5.93;4.80;;;7.70;99.90;;;;;;5051550;28;20209;-65
2020/12/31 12:06:49;;;;;;;5.77;4.37;;;7.60;99.90;;;;;;5051857;28;20228;-65
2020/12/31 12:09:16;;;;;;;6.70;3.77;;;7.70;99.90;;;;;;5051338;28;20255;-65
2020/12/31 12:11:42;;;;;;;5.17;4.53;;;7.70;99.90;;;;;;5051024;28;20205;-65
2020/12/31 12:14:09;;;;;;;4.43;3.80;;;7.80;99.90;;;;;;5050832;28;20229;-64
2020/12/31 12:16:35;;;;;;;4.27;3.87;;;7.70;99.90;;;;;;5050852;28;20248;-64
2020/12/31 12:19:02;;;;;;;4.57;3.90;;;7.70;99.90;;;;;;5050698;28;20666;-64
2020/12/31 12:21:28;;;;;;;4.40;3.73;;;7.50;99.90;;;;;;5051717;28;20209;-64
2020/12/31 12:23:54;;;;;;;4.10;3.60;;;7.40;99.90;;;;;;5051586;28;20209;-64
2020/12/31 12:26:20;;;;;;;4.47;3.87;;;7.40;99.90;;;;;;5052423;28;20222;-64
2020/12/31 12:28:47;;;;;;;6.30;4.00;;;7.40;99.90;;;;;;5054917;28;20221;-62
2020/12/31 12:31:13;;;;;;;4.50;3.30;;;7.50;99.90;;;;;;5055918;28;20205;-65
2020/12/31 12:33:39;;;;;;;5.80;4.73;;;7.60;99.90;;;;;;5054675;28;20205;-64
2020/12/31 12:36:07;;;;;;;4.73;3.80;;;7.70;99.90;;;;;;5054580;28;20225;-65
2020/12/31 12:38:33;;;;;;;5.70;4.00;;;7.60;99.90;;;;;;5055486;28;20228;-65
2020/12/31 12:40:59;;;;;;;5.60;4.10;;;7.50;99.90;;;;;;5051242;28;20208;-65
2020/12/31 12:43:25;;;;;;;5.47;4.27;;;7.50;99.90;;;;;;5051316;28;20227;-64
2020/12/31 12:45:52;;;;;;;4.23;3.80;;;7.30;99.90;;;;;;5051541;28;20205;-68
2020/12/31 12:48:18;;;;;;;4.57;3.53;;;7.20;99.90;;;;;;5050929;28;20213;-66
2020/12/31 12:50:44;;;;;;;4.10;3.60;;;7.00;99.90;;;;;;5051089;28;20524;-63
2020/12/31 12:53:11;;;;;;;7.03;3.87;;;6.90;99.90;;;;;;5051158;28;20263;-63
2020/12/31 12:55:37;;;;;;;5.50;4.20;;;7.00;99.90;;;;;;5050901;28;20205;-62
2020/12/31 12:58:03;;;;;;;5.57;5.00;;;7.10;99.90;;;;;;5051550;28;20724;-63
2020/12/31 13:00:29;;;;;;;4.50;3.87;;;7.20;99.90;;;;;;5051022;28;20639;-63
2020/12/31 13:02:56;;;;;;;5.57;4.40;;;7.30;99.90;;;;;;5051202;28;20209;-65